Decoded Metar for KGPH ( in ) (IATA:) | Meteo·Mobile Aviation Weather
aviador You're here:

KGPH Decoded Metar

in
Report Time2018-12-15 16:15:00
UTC Time2018-12-15 16:17:54
Flight Rules vfr VFR
Wind330° at 05 kt
W.Decomp.*RWY 36: 4.3 kt HW 2.5 kt LCW
W.Rank330° ranks 9
Current wind is below 330° avg. (8.1)
Visibility9999 m
Phenomena:N/A
Clouds:N/A
Expected CloudBase > 3,200 ft AGL from Temp-Dew spread
CeilingNone
Temp03°C
Dew Point-5°C (56% RH)
AAT-1.4°C
QNH1024 hPa
Raw Report
KGPH 151615Z AUTO 33005KT 10SM CLR 03/M05 A3023 RMK AO2=

Extra information for KGPH:More info

Social comments